Terminal Aerodrome Forecast
Issued by NWS

Home | Current Version | Previous Version | Text Only | Print | Product List | Glossary On
Versions: 1 2 3 4 5 6 7 8 9 10 11 12 13 14 15 16 17
000
FTUS43 KDLH 261000 AAA
TAFHYR
TAF AMD
KHYR 261055Z 2611/2706 32010G18KT P6SM OVC030
      TEMPO 2611/2612 2SM -SHSN OVC018
     FM261200 33011G17KT P6SM OVC030
      TEMPO 2612/2614 4SM -SHSN OVC020
     FM261600 34012KT P6SM BKN035
      TEMPO 2620/2624 SCT035
     FM270200 03004KT P6SM BKN035=

USA.gov is the U.S. government's official web portal to all federal, state and local government web resources and services.